Time;durP1;ratioP1;P1;durP2;ratioP2;P2;SDS_P1;SDS_P2;PMS_P1;PMS_P2;Temp;Humidity;BMP_temperature;BMP_pressure;BME280_temperature;BME280_humidity;BME280_pressure;Samples;Min_cycle;Max_cycle;Signal;HPM_P1;HPM_P2
2022/05/08 00:01:41;;;;;;;7.07;5.97;;;;;;;11.73;100.00;97054.88;4984370;28;20185;-66
2022/05/08 00:04:07;;;;;;;48.22;27.75;;;;;;;11.71;100.00;97064.63;4979036;28;20058;-67
2022/05/08 00:06:32;;;;;;;8.07;6.43;;;;;;;11.88;100.00;97058.63;4983910;28;20069;-67
2022/05/08 00:08:58;;;;;;;9.85;6.85;;;;;;;11.73;100.00;97062.31;4979043;28;20046;-67
2022/05/08 00:11:23;;;;;;;12.90;7.20;;;;;;;11.68;100.00;97057.91;4985365;28;20621;-67
2022/05/08 00:13:49;;;;;;;10.07;7.28;;;;;;;11.61;100.00;97053.09;4996688;28;20109;-69
2022/05/08 00:16:14;;;;;;;10.13;7.43;;;;;;;11.58;100.00;97055.78;4985616;28;20049;-67
2022/05/08 00:18:40;;;;;;;10.23;6.93;;;;;;;11.55;100.00;97051.03;4981921;28;20054;-68
2022/05/08 00:21:06;;;;;;;10.32;6.88;;;;;;;11.51;100.00;97053.69;4970660;28;20635;-67
2022/05/08 00:23:33;;;;;;;9.40;7.60;;;;;;;11.44;100.00;97046.13;4950463;28;20073;-67
2022/05/08 00:25:58;;;;;;;12.88;7.63;;;;;;;11.40;100.00;97044.50;4983297;28;20046;-69
2022/05/08 00:28:24;;;;;;;11.35;7.70;;;;;;;11.40;100.00;97045.28;4981239;28;20808;-68
2022/05/08 00:30:49;;;;;;;12.50;8.45;;;;;;;11.36;100.00;97038.94;4968413;28;20038;-67
2022/05/08 00:33:15;;;;;;;10.43;8.02;;;;;;;11.33;100.00;97047.88;4974664;28;20058;-70
2022/05/08 00:35:41;;;;;;;9.45;7.32;;;;;;;11.27;100.00;97044.66;4973995;28;20046;-67
2022/05/08 00:38:08;;;;;;;11.32;7.97;;;;;;;11.27;100.00;97052.88;4988447;28;20060;-68
2022/05/08 00:40:35;;;;;;;10.68;8.07;;;;;;;11.26;100.00;97045.78;4993161;28;20475;-68
2022/05/08 00:43:33;;;;;;;10.82;7.57;;;;;;;11.23;100.00;97043.75;4981579;28;20077;-69
2022/05/08 00:46:00;;;;;;;10.30;7.97;;;;;;;11.26;100.00;97047.75;4964202;28;20046;-67
2022/05/08 00:48:25;;;;;;;15.52;8.90;;;;;;;11.27;100.00;97033.69;4959967;28;20125;-67
2022/05/08 00:50:51;;;;;;;15.60;10.10;;;;;;;11.27;100.00;97049.31;4967116;28;20184;-66
2022/05/08 00:53:17;;;;;;;14.38;10.23;;;;;;;11.24;100.00;97039.88;4970445;28;20054;-68
2022/05/08 00:55:43;;;;;;;10.80;8.02;;;;;;;11.27;100.00;97043.84;4965916;28;20046;-67
2022/05/08 00:58:09;;;;;;;11.25;8.80;;;;;;;11.34;100.00;97043.97;4977717;28;20057;-67
2022/05/08 01:00:34;;;;;;;9.35;8.00;;;;;;;11.32;100.00;97042.75;4957677;28;20145;-67
2022/05/08 01:03:00;;;;;;;11.60;8.15;;;;;;;11.26;100.00;97039.53;4970664;28;20517;-68
2022/05/08 01:05:26;;;;;;;11.30;8.07;;;;;;;11.21;100.00;97035.13;4976456;28;20487;-67
2022/05/08 01:07:51;;;;;;;10.98;8.65;;;;;;;11.19;100.00;97044.88;4981274;28;20062;-68
2022/05/08 01:10:17;;;;;;;12.93;9.80;;;;;;;11.19;100.00;97042.13;4957775;28;20073;-67
2022/05/08 01:12:44;;;;;;;11.13;8.63;;;;;;;11.21;100.00;97039.81;4980919;28;20058;-69
2022/05/08 01:15:15;;;;;;;10.70;8.25;;;;;;;11.19;100.00;97042.13;4973589;28;20050;-69
2022/05/08 01:17:41;;;;;;;11.75;8.85;;;;;;;11.22;100.00;97041.41;4964250;28;20046;-68
2022/05/08 01:20:07;;;;;;;12.65;8.98;;;;;;;11.28;100.00;97053.66;4977761;28;20045;-68
2022/05/08 01:22:33;;;;;;;13.65;9.27;;;;;;;11.25;100.00;97040.66;4983275;28;20042;-69
2022/05/08 01:25:02;;;;;;;13.15;8.60;;;;;;;11.26;100.00;97045.00;5000129;28;20045;-69
2022/05/08 01:27:28;;;;;;;11.32;8.95;;;;;;;11.23;100.00;97037.50;4983050;28;20049;-68
2022/05/08 01:29:54;;;;;;;16.10;9.75;;;;;;;11.17;100.00;97037.00;4982751;28;20042;-69
2022/05/08 01:32:20;;;;;;;12.57;9.55;;;;;;;11.24;100.00;97039.09;4959508;28;20053;-69
2022/05/08 01:34:45;;;;;;;13.02;9.93;;;;;;;11.25;100.00;97043.41;4965645;28;20042;-70
2022/05/08 01:37:10;;;;;;;13.23;9.90;;;;;;;11.19;100.00;97044.88;4977002;28;20050;-70
2022/05/08 01:39:36;;;;;;;13.25;9.73;;;;;;;11.15;100.00;97041.28;4982983;28;20217;-71
2022/05/08 01:42:04;;;;;;;12.40;9.35;;;;;;;11.19;100.00;97036.63;4965141;28;20042;-68
2022/05/08 01:44:30;;;;;;;14.93;10.05;;;;;;;11.15;100.00;97036.56;4982488;28;20507;-70
2022/05/08 01:49:40;;;;;;;13.85;9.93;;;;;;;11.16;100.00;97037.34;4982276;28;20045;-67
2022/05/08 01:52:06;;;;;;;12.82;9.40;;;;;;;11.17;100.00;97044.44;4976949;28;20046;-68
2022/05/08 01:54:31;;;;;;;17.67;11.38;;;;;;;11.17;100.00;97037.00;4988302;28;20490;-68
2022/05/08 01:56:56;;;;;;;14.95;10.52;;;;;;;11.15;100.00;97038.53;4969545;28;20062;-68
2022/05/08 01:59:22;;;;;;;20.20;11.05;;;;;;;11.17;100.00;97030.72;4961021;28;20544;-69
2022/05/08 02:01:47;;;;;;;16.33;11.15;;;;;;;11.16;100.00;97037.34;4984097;28;20037;-70
2022/05/08 02:04:15;;;;;;;16.27;11.45;;;;;;;11.14;100.00;97031.44;4996822;28;20041;-70
2022/05/08 02:06:44;;;;;;;19.98;11.70;;;;;;;11.15;100.00;97036.56;4991170;28;20050;-69
2022/05/08 02:09:10;;;;;;;14.35;10.63;;;;;;;11.16;100.00;97042.84;4976863;28;20050;-69
2022/05/08 02:11:35;;;;;;;15.00;10.63;;;;;;;11.18;100.00;97040.53;4964786;28;20435;-69
2022/05/08 02:14:02;;;;;;;17.17;12.15;;;;;;;11.17;100.00;97047.19;4981799;28;20038;-68
2022/05/08 02:16:29;;;;;;;16.30;11.55;;;;;;;11.17;100.00;97045.22;4978498;28;20119;-69
2022/05/08 02:18:55;;;;;;;19.52;12.25;;;;;;;11.15;100.00;97046.75;4967880;28;20042;-69
2022/05/08 02:21:21;;;;;;;19.38;12.65;;;;;;;11.14;100.00;97045.94;4956749;28;20046;-69
2022/05/08 02:23:46;;;;;;;16.60;11.88;;;;;;;11.15;100.00;97044.78;4962469;28;20122;-70
2022/05/08 02:26:12;;;;;;;16.58;11.20;;;;;;;11.16;100.00;97038.13;4957040;28;20492;-70
2022/05/08 02:28:41;;;;;;;15.48;11.57;;;;;;;11.12;100.00;97036.50;4971259;28;20136;-70
2022/05/08 02:31:07;;;;;;;18.35;13.25;;;;;;;11.07;100.00;97035.66;4974752;28;20053;-69
2022/05/08 02:33:32;;;;;;;19.40;13.05;;;;;;;11.10;100.00;97036.84;4964426;28;20042;-70
2022/05/08 02:35:58;;;;;;;19.33;13.85;;;;;;;11.07;100.00;97032.09;4960675;28;20067;-71
2022/05/08 02:38:24;;;;;;;20.27;13.50;;;;;;;11.09;100.00;97038.00;4939177;28;20105;-71
2022/05/08 02:40:51;;;;;;;18.05;13.43;;;;;;;11.06;100.00;97033.25;4944264;28;20042;-69
2022/05/08 02:43:20;;;;;;;19.33;12.68;;;;;;;11.03;100.00;97033.97;4957250;28;20042;-70
2022/05/08 02:45:46;;;;;;;16.80;12.85;;;;;;;11.06;100.00;97036.00;4944581;28;20051;-69
2022/05/08 02:48:12;;;;;;;19.63;14.90;;;;;;;11.11;100.00;97024.75;4956771;28;20520;-70
2022/05/08 02:50:38;;;;;;;18.48;13.32;;;;;;;11.12;100.00;97026.31;4962237;28;20051;-70
2022/05/08 02:53:03;;;;;;;20.02;13.30;;;;;;;11.13;100.00;97024.38;4959240;28;20074;-66
2022/05/08 03:01:01;;;;;;;19.38;12.32;;;;;;;11.12;100.00;97017.31;4987186;28;20503;-68
2022/05/08 03:03:27;;;;;;;18.40;12.80;;;;;;;11.11;100.00;97022.00;4977750;28;20041;-69
2022/05/08 03:05:53;;;;;;;19.25;14.18;;;;;;;11.06;100.00;97020.34;4996511;28;20290;-70
2022/05/08 03:08:19;;;;;;;18.95;14.75;;;;;;;11.11;100.00;97027.50;4976145;28;20130;-68
2022/05/08 03:13:39;;;;;;;19.55;14.02;;;;;;;11.14;100.00;97025.97;4980884;28;20053;-68
2022/05/08 03:16:08;;;;;;;20.33;13.77;;;;;;;11.07;100.00;97026.59;4975770;28;20387;-68
2022/05/08 03:18:39;;;;;;;20.80;13.77;;;;;;;11.06;100.00;97016.81;4979199;28;20442;-68
2022/05/08 03:21:09;;;;;;;19.48;13.73;;;;;;;11.05;100.00;97024.22;4972501;28;20399;-67
2022/05/08 03:23:35;;;;;;;22.67;13.25;;;;;;;11.02;100.00;97024.16;4980032;28;20041;-68
2022/05/08 03:26:04;;;;;;;20.15;14.50;;;;;;;10.98;100.00;97021.34;4979288;28;20034;-68
2022/05/08 03:28:31;;;;;;;21.20;15.27;;;;;;;11.00;100.00;97023.72;4970671;28;20039;-71
2022/05/08 03:30:59;;;;;;;21.38;14.52;;;;;;;11.01;100.00;97031.59;4987676;28;20530;-70
2022/05/08 03:33:25;;;;;;;20.85;14.20;;;;;;;10.98;100.00;97026.81;4980242;28;20129;-70
2022/05/08 03:35:50;;;;;;;23.80;14.30;;;;;;;10.97;100.00;97029.94;4981453;28;20390;-69
2022/05/08 03:38:18;;;;;;;21.00;15.07;;;;;;;10.93;100.00;97026.31;4956863;28;20038;-68
2022/05/08 03:40:43;;;;;;;20.70;14.77;;;;;;;10.94;100.00;97031.44;4982567;28;20734;-70
2022/05/08 03:43:09;;;;;;;19.00;13.25;;;;;;;10.94;100.00;97033.41;4980004;28;20046;-69
2022/05/08 03:45:35;;;;;;;20.95;14.23;;;;;;;10.95;100.00;97033.03;4967390;28;20046;-70
2022/05/08 03:48:01;;;;;;;23.73;13.95;;;;;;;10.89;100.00;97038.03;4995974;28;20050;-68
2022/05/08 03:50:27;;;;;;;20.08;14.70;;;;;;;10.85;100.00;97034.41;4977255;28;20061;-68
2022/05/08 03:52:53;;;;;;;21.13;14.48;;;;;;;10.86;100.00;97030.53;4986258;28;20550;-69
2022/05/08 03:55:19;;;;;;;20.80;14.57;;;;;;;10.85;100.00;97034.41;4981193;28;20082;-69
2022/05/08 03:57:45;;;;;;;21.80;14.57;;;;;;;10.87;100.00;97034.03;4981906;28;20240;-69
2022/05/08 04:00:12;;;;;;;19.67;14.35;;;;;;;10.86;100.00;97027.78;4979144;28;20049;-70
2022/05/08 04:02:39;;;;;;;21.88;15.35;;;;;;;10.85;100.00;97036.34;4977133;28;20046;-70
2022/05/08 04:05:06;;;;;;;20.73;14.55;;;;;;;10.82;100.00;97029.66;4979966;28;20408;-68
2022/05/08 04:07:32;;;;;;;22.20;16.20;;;;;;;10.81;100.00;97030.81;4984468;28;20042;-70
2022/05/08 04:09:58;;;;;;;22.20;16.17;;;;;;;10.84;100.00;97037.50;4967096;28;20403;-70
2022/05/08 04:12:24;;;;;;;20.08;14.90;;;;;;;10.82;100.00;97034.31;4979514;28;20148;-69
2022/05/08 04:14:49;;;;;;;22.05;16.00;;;;;;;10.83;100.00;97033.19;4988556;28;20050;-69
2022/05/08 04:17:16;;;;;;;26.75;16.88;;;;;;;10.87;100.00;97028.56;4999426;28;20150;-68
2022/05/08 04:19:42;;;;;;;23.33;15.30;;;;;;;10.86;100.00;97032.47;4978944;28;20039;-69
2022/05/08 04:24:52;;;;;;;22.08;15.40;;;;;;;10.84;100.00;97038.31;4979591;28;20489;-70
2022/05/08 04:27:17;;;;;;;22.63;16.00;;;;;;;10.85;100.00;97045.34;4972894;28;20050;-69
2022/05/08 04:29:43;;;;;;;24.10;15.48;;;;;;;10.86;100.00;97037.94;4980590;28;20042;-69
2022/05/08 04:32:08;;;;;;;21.50;16.10;;;;;;;10.87;100.00;97043.06;4958121;28;20042;-70
2022/05/08 04:34:33;;;;;;;24.95;16.75;;;;;;;10.90;100.00;97038.81;4963052;28;20049;-69
2022/05/08 04:36:59;;;;;;;21.33;15.70;;;;;;;10.89;100.00;97048.19;4981507;28;20046;-69
2022/05/08 04:39:24;;;;;;;21.17;15.05;;;;;;;10.92;100.00;97047.47;4960792;28;20038;-70
2022/05/08 04:41:49;;;;;;;24.95;16.42;;;;;;;10.94;100.00;97042.41;4966275;28;20518;-70
2022/05/08 04:44:15;;;;;;;23.30;16.88;;;;;;;10.97;100.00;97049.91;4957326;28;20535;-70
2022/05/08 04:46:40;;;;;;;25.75;16.42;;;;;;;11.00;100.00;97043.72;4983242;28;20042;-69
2022/05/08 04:49:06;;;;;;;21.20;15.48;;;;;;;11.02;100.00;97055.13;4977784;28;20627;-68
2022/05/08 04:51:31;;;;;;;23.45;15.18;;;;;;;11.05;100.00;97048.91;4966403;28;20042;-68
2022/05/08 04:53:57;;;;;;;23.35;16.40;;;;;;;11.09;100.00;97052.53;4983581;28;20046;-69
2022/05/08 04:56:22;;;;;;;23.75;17.25;;;;;;;11.12;100.00;97051.00;4959546;28;20050;-70
2022/05/08 04:58:48;;;;;;;23.58;16.58;;;;;;;11.13;100.00;97057.25;4988748;28;20046;-70
2022/05/08 05:01:14;;;;;;;23.83;16.20;;;;;;;11.14;100.00;97051.41;4973982;28;20054;-71
2022/05/08 05:03:39;;;;;;;22.75;15.18;;;;;;;11.15;100.00;97053.03;4983389;28;20061;-71
2022/05/08 05:06:05;;;;;;;24.10;15.32;;;;;;;11.22;100.00;97052.38;4975105;28;20038;-68
2022/05/08 05:08:30;;;;;;;28.52;16.00;;;;;;;11.22;100.00;97064.13;4965382;28;20047;-69
2022/05/08 05:10:55;;;;;;;24.77;16.17;;;;;;;11.23;100.00;97051.19;4983523;28;20046;-69
2022/05/08 05:13:21;;;;;;;21.33;14.75;;;;;;;11.28;100.00;97048.97;4978085;28;20038;-68
2022/05/08 05:15:46;;;;;;;24.70;16.27;;;;;;;11.31;100.00;97058.41;4955827;28;20395;-69
2022/05/08 05:18:12;;;;;;;23.00;15.68;;;;;;;11.31;100.00;97060.34;4978169;28;20042;-69
2022/05/08 05:20:37;;;;;;;21.85;15.20;;;;;;;11.32;100.00;97060.00;4982164;28;20046;-70
2022/05/08 05:23:03;;;;;;;21.00;14.90;;;;;;;11.35;100.00;97061.22;4980410;28;20113;-68
2022/05/08 05:25:29;;;;;;;20.27;15.15;;;;;;;11.40;100.00;97069.16;4961867;28;20042;-69
2022/05/08 05:27:55;;;;;;;20.35;15.65;;;;;;;11.40;100.00;97064.47;4981946;28;20046;-69
2022/05/08 05:30:21;;;;;;;21.73;15.10;;;;;;;11.44;100.00;97076.28;4982787;28;20038;-69
2022/05/08 05:32:46;;;;;;;22.42;15.82;;;;;;;11.40;100.00;97075.44;4985906;28;20038;-69
2022/05/08 05:35:12;;;;;;;22.77;15.65;;;;;;;11.38;100.00;97072.28;4978262;28;20059;-67
2022/05/08 05:37:39;;;;;;;25.58;16.85;;;;;;;11.35;100.00;97069.47;4982137;28;20038;-68
2022/05/08 05:40:06;;;;;;;25.27;17.02;;;;;;;11.36;100.00;97065.53;4975401;28;20042;-66
2022/05/08 05:42:31;;;;;;;24.02;16.58;;;;;;;11.40;100.00;97077.41;4982029;28;20403;-67
2022/05/08 05:44:57;;;;;;;25.70;17.40;;;;;;;11.37;100.00;97075.38;4957453;28;20042;-68
2022/05/08 05:50:08;;;;;;;22.05;17.23;;;;;;;11.41;100.00;97076.22;4975140;28;20402;-68
2022/05/08 05:52:35;;;;;;;25.38;17.15;;;;;;;11.40;100.00;97078.19;4982263;28;20061;-68
2022/05/08 05:55:01;;;;;;;22.88;16.45;;;;;;;11.42;100.00;97078.59;4973489;28;20105;-67
2022/05/08 05:57:26;;;;;;;21.67;15.57;;;;;;;11.48;100.00;97079.88;4974679;28;20487;-68
2022/05/08 05:59:52;;;;;;;23.15;17.30;;;;;;;11.48;100.00;97077.16;4971520;28;20066;-68
2022/05/08 06:02:17;;;;;;;22.75;17.42;;;;;;;11.50;100.00;97079.53;4968308;28;20038;-69
2022/05/08 06:04:43;;;;;;;22.63;16.20;;;;;;;11.54;100.00;97082.34;4969010;28;20085;-70
2022/05/08 06:07:08;;;;;;;22.98;15.10;;;;;;;11.56;100.00;97082.75;4971186;28;20064;-69
2022/05/08 06:09:33;;;;;;;23.75;17.23;;;;;;;11.55;100.00;97078.44;4979970;28;20079;-71
2022/05/08 06:11:59;;;;;;;22.33;15.85;;;;;;;11.57;100.00;97085.16;4982339;28;20101;-70
2022/05/08 06:14:24;;;;;;;23.40;17.02;;;;;;;11.60;100.00;97072.66;4968878;28;20422;-70
2022/05/08 06:16:49;;;;;;;22.17;16.20;;;;;;;11.64;100.00;97076.25;4981017;28;20121;-69
2022/05/08 06:19:15;;;;;;;23.75;16.08;;;;;;;11.69;100.00;97094.41;4969914;28;20043;-69
2022/05/08 06:21:40;;;;;;;22.38;15.75;;;;;;;11.85;100.00;97084.09;4979792;28;20534;-70
2022/05/08 06:24:06;;;;;;;21.98;15.70;;;;;;;11.85;100.00;97093.13;4971051;28;20125;-69
2022/05/08 06:26:31;;;;;;;24.25;16.30;;;;;;;11.92;100.00;97089.75;4980146;28;20045;-69
2022/05/08 06:28:58;;;;;;;20.98;14.93;;;;;;;12.10;100.00;97092.78;4986071;28;20176;-68
2022/05/08 06:31:23;;;;;;;21.00;15.10;;;;;;;12.16;100.00;97096.00;4984609;28;20084;-69
2022/05/08 06:33:49;;;;;;;20.52;14.30;;;;;;;12.21;100.00;97098.44;4965628;28;20062;-69
2022/05/08 06:36:14;;;;;;;21.75;14.85;;;;;;;12.26;100.00;97091.84;4973600;28;20097;-69
2022/05/08 06:38:40;;;;;;;20.50;14.07;;;;;;;12.26;100.00;97098.13;4981528;28;20154;-69
2022/05/08 06:41:05;;;;;;;20.92;15.70;;;;;;;12.26;100.00;97087.13;4975197;28;20054;-66
2022/05/08 06:43:31;;;;;;;21.35;15.63;;;;;;;12.35;100.00;97090.44;4981588;28;20387;-70
2022/05/08 06:45:56;;;;;;;18.77;14.13;;;;;;;12.41;100.00;97086.22;4976330;28;20551;-69
2022/05/08 06:48:22;;;;;;;21.60;14.95;;;;;;;12.54;100.00;97091.50;4971813;28;20046;-68
2022/05/08 06:50:47;;;;;;;21.10;15.02;;;;;;;12.65;100.00;97099.91;4978497;28;20104;-69
2022/05/08 06:53:13;;;;;;;22.08;15.00;;;;;;;12.82;100.00;97093.88;4975749;28;20045;-70
2022/05/08 06:55:38;;;;;;;22.70;14.60;;;;;;;12.97;100.00;97094.84;4972214;28;20046;-69
2022/05/08 06:58:04;;;;;;;20.00;14.57;;;;;;;13.07;100.00;97098.91;4972355;28;20046;-67
2022/05/08 07:03:14;;;;;;;18.52;13.38;;;;;;;13.18;100.00;97103.38;4970486;28;20046;-69
2022/05/08 07:05:45;;;;;;;18.60;13.35;;;;;;;13.44;100.00;97107.25;4977560;28;20112;-69
2022/05/08 07:08:10;;;;;;;19.05;12.98;;;;;;;13.53;100.00;97104.19;4970051;28;20050;-69
2022/05/08 07:10:36;;;;;;;19.70;12.75;;;;;;;13.78;100.00;97101.72;4965245;28;20050;-70
2022/05/08 07:13:01;;;;;;;17.80;12.80;;;;;;;13.86;100.00;97108.84;4979768;28;20105;-70
2022/05/08 07:15:27;;;;;;;18.73;12.18;;;;;;;14.00;100.00;97108.22;4975379;28;20048;-70
2022/05/08 07:17:52;;;;;;;16.60;11.20;;;;;;;14.13;100.00;97105.97;4972513;28;20435;-68
2022/05/08 07:20:18;;;;;;;16.10;11.93;;;;;;;14.05;100.00;97110.63;4964839;28;20460;-70
2022/05/08 07:22:43;;;;;;;16.25;12.07;;;;;;;13.96;100.00;97099.91;4979148;28;20046;-69
2022/05/08 07:25:11;;;;;;;16.05;11.60;;;;;;;14.03;100.00;97112.97;4958941;28;20049;-68
2022/05/08 07:27:39;;;;;;;15.60;11.63;;;;;;;13.69;100.00;97104.75;4993923;28;20054;-68
2022/05/08 07:30:08;;;;;;;15.77;9.95;;;;;;;13.88;100.00;97106.53;4991311;28;20045;-66
2022/05/08 07:32:34;;;;;;;14.15;10.35;;;;;;;13.86;100.00;97114.38;4984383;28;20042;-70
2022/05/08 07:37:44;;;;;;;12.00;8.60;;;;;;;13.89;100.00;97118.34;4975518;28;20074;-68
2022/05/08 07:40:11;;;;;;;10.80;9.07;;;;;;;14.08;100.00;97109.88;4942604;28;20082;-69
2022/05/08 07:42:37;;;;;;;12.30;9.65;;;;;;;14.32;100.00;97110.47;4981302;28;20046;-68
2022/05/08 07:45:03;;;;;;;13.57;10.60;;;;;;;14.53;100.00;97112.59;4973013;28;20412;-65
2022/05/08 07:47:29;;;;;;;11.93;8.60;;;;;;;14.88;100.00;97108.53;4975714;28;20045;-69
2022/05/08 07:49:55;;;;;;;12.13;9.32;;;;;;;14.41;100.00;97102.66;4981658;28;20039;-68
2022/05/08 07:52:20;;;;;;;12.07;8.98;;;;;;;14.62;100.00;97101.25;4977777;28;20092;-68
2022/05/08 07:54:46;;;;;;;12.00;9.73;;;;;;;14.71;100.00;97107.22;4976271;28;20149;-68
2022/05/08 07:57:12;;;;;;;13.52;10.32;;;;;;;15.02;100.00;97108.59;4984563;28;20118;-68
2022/05/08 07:59:37;;;;;;;13.52;7.90;;;;;;;15.75;100.00;97107.72;4991221;28;20046;-68
2022/05/08 08:02:03;;;;;;;10.73;8.48;;;;;;;15.31;100.00;97110.72;4979448;28;20047;-66
2022/05/08 08:04:29;;;;;;;18.52;12.95;;;;;;;15.49;100.00;97112.34;4945927;28;20038;-69
2022/05/08 08:06:54;;;;;;;12.27;9.82;;;;;;;15.35;100.00;97106.00;4980750;28;20038;-68
2022/05/08 08:09:20;;;;;;;11.75;9.00;;;;;;;15.27;100.00;97119.78;4975517;28;20045;-68
2022/05/08 08:11:46;;;;;;;14.85;11.13;;;;;;;15.61;100.00;97105.69;4960749;28;20097;-69
2022/05/08 08:14:12;;;;;;;15.23;10.50;;;;;;;15.57;100.00;97104.88;4969772;28;20046;-66
2022/05/08 08:16:39;;;;;;;12.40;9.45;;;;;;;15.26;100.00;97092.56;4968799;28;20098;-67
2022/05/08 08:19:05;;;;;;;13.77;10.48;;;;;;;14.99;100.00;97106.63;4956578;28;20047;-67
2022/05/08 08:21:30;;;;;;;16.70;11.35;;;;;;;15.08;100.00;97114.53;4984609;28;20047;-69
2022/05/08 08:23:55;;;;;;;13.02;9.05;;;;;;;15.55;99.61;97110.00;4984086;28;20046;-69
2022/05/08 08:26:21;;;;;;;12.90;10.15;;;;;;;15.84;99.03;97112.88;4961267;28;20133;-70
2022/05/08 08:28:46;;;;;;;14.98;12.95;;;;;;;15.70;99.91;97108.09;4985734;28;20042;-67
2022/05/08 08:31:12;;;;;;;11.07;8.98;;;;;;;15.46;100.00;97115.09;4960686;28;20069;-67
2022/05/08 08:33:40;;;;;;;12.07;8.85;;;;;;;15.63;98.15;97111.63;4972218;28;20070;-67
2022/05/08 08:36:07;;;;;;;13.73;10.52;;;;;;;15.33;100.00;97117.41;4975130;28;20047;-69
2022/05/08 08:38:32;;;;;;;12.70;9.75;;;;;;;15.68;100.00;97116.78;4965393;28;20062;-70
2022/05/08 08:41:03;;;;;;;13.07;8.73;;;;;;;15.83;97.75;97119.59;4954375;28;20047;-67
2022/05/08 08:47:42;;;;;;;9.10;7.47;;;;;;;16.44;96.39;97116.91;4987457;28;20046;-70
2022/05/08 08:49:06;;;;;;;10.13;8.18;;;;;;;15.56;100.00;97125.41;4974024;28;20056;-69
2022/05/08 08:51:33;;;;;;;10.07;8.15;;;;;;;15.99;97.19;97124.72;4963321;28;20046;-69
2022/05/08 08:53:59;;;;;;;8.77;7.40;;;;;;;16.24;94.86;97119.25;4965085;28;20098;-70
2022/05/08 08:56:24;;;;;;;11.05;7.28;;;;;;;16.24;96.49;97114.53;4952085;28;20410;-70
2022/05/08 08:58:49;;;;;;;10.40;7.45;;;;;;;16.33;95.39;97116.09;4961732;28;20045;-69
2022/05/08 09:01:15;;;;;;;8.80;6.72;;;;;;;16.04;92.86;97119.63;4955797;28;20491;-68
2022/05/08 09:03:40;;;;;;;7.63;6.43;;;;;;;16.48;92.15;97123.22;4964188;28;20054;-69
2022/05/08 09:06:08;;;;;;;8.52;6.80;;;;;;;16.93;86.95;97112.53;4950065;28;20078;-69
2022/05/08 09:08:35;;;;;;;8.65;6.25;;;;;;;16.51;88.82;97108.59;4964507;28;20125;-68
2022/05/08 09:11:02;;;;;;;9.68;7.57;;;;;;;16.26;93.86;97108.59;4964992;28;20038;-69
2022/05/08 09:13:31;;;;;;;9.85;6.95;;;;;;;16.31;92.96;97118.47;4958379;28;20146;-66
2022/05/08 09:16:04;;;;;;;10.23;7.85;;;;;;;16.34;92.00;97124.00;4954811;28;20122;-68
2022/05/08 09:18:29;;;;;;;10.55;7.30;;;;;;;16.14;92.70;97109.00;4963121;28;20066;-68
2022/05/08 09:21:54;;;;;;;19.38;12.45;;;;;;;15.64;94.69;97120.69;4964537;28;20070;-71
2022/05/08 09:23:41;;;;;;;9.00;7.30;;;;;;;16.11;92.39;97121.59;4963170;28;20046;-69
2022/05/08 09:26:08;;;;;;;7.10;5.50;;;;;;;16.74;89.89;97121.22;4958431;28;20050;-68
2022/05/08 09:28:36;;;;;;;8.52;5.97;;;;;;;16.86;88.51;97117.28;4961763;28;20058;-68
2022/05/08 09:31:09;;;;;;;7.50;5.18;;;;;;;16.87;87.54;97111.34;4972490;28;20066;-69
2022/05/08 09:33:37;;;;;;;6.72;5.43;;;;;;;16.87;85.46;97116.09;4967485;28;20451;-67
2022/05/08 09:36:05;;;;;;;7.03;5.00;;;;;;;16.74;82.92;97110.94;4960075;28;20042;-68
2022/05/08 09:38:47;;;;;;;6.40;5.28;;;;;;;17.40;86.17;97112.38;4964791;28;20387;-67
2022/05/08 09:41:23;;;;;;;6.47;5.70;;;;;;;17.83;82.69;97114.94;4953153;28;20051;-67
2022/05/08 09:43:51;;;;;;;6.45;4.40;;;;;;;17.31;82.68;97103.72;4961266;28;20078;-68
2022/05/08 09:46:17;;;;;;;5.95;4.93;;;;;;;16.92;81.87;97116.47;4949560;28;20529;-67
2022/05/08 09:48:43;;;;;;;6.82;5.72;;;;;;;16.99;86.02;97115.66;4963751;28;20042;-68
2022/05/08 09:51:11;;;;;;;7.38;5.90;;;;;;;16.73;86.73;97114.91;4960027;28;20050;-67
2022/05/08 09:53:39;;;;;;;7.97;5.13;;;;;;;16.81;79.46;97110.13;4960838;28;20539;-68
2022/05/08 09:56:07;;;;;;;5.97;4.95;;;;;;;16.36;84.30;97110.56;4949988;28;20034;-68
2022/05/08 09:58:33;;;;;;;6.32;5.13;;;;;;;16.07;85.82;97112.53;4966105;28;20043;-67
2022/05/08 10:00:59;;;;;;;7.63;5.95;;;;;;;16.12;86.40;97123.19;4978990;28;20075;-67
2022/05/08 10:03:26;;;;;;;9.60;6.28;;;;;;;15.93;88.65;97109.75;4971854;28;20054;-69
2022/05/08 10:05:52;;;;;;;8.45;5.45;;;;;;;15.84;89.04;97126.69;4977065;28;20141;-67
2022/05/08 10:08:26;;;;;;;7.80;6.43;;;;;;;16.13;88.92;97115.69;4958896;28;20051;-68
2022/05/08 10:13:54;;;;;;;;;;;;;;;16.71;88.57;97122.81;4963940;28;20035;-67
2022/05/08 10:16:41;;;;;;;13.35;6.63;;;;;;;17.28;85.71;97116.38;4957671;28;19914;-68
2022/05/08 10:19:25;;;;;;;7.78;6.18;;;;;;;17.23;84.65;97114.00;4957717;28;20045;-67
2022/05/08 10:22:35;;;;;;;10.02;7.10;;;;;;;17.22;86.22;97111.66;4957005;28;20118;-68
2022/05/08 10:24:54;;;;;;;7.05;5.38;;;;;;;17.29;83.20;97117.16;4972847;28;20403;-68
2022/05/08 10:27:31;;;;;;;9.52;5.70;;;;;;;16.84;84.07;97106.63;4958881;28;20046;-67
2022/05/08 10:29:56;;;;;;;10.63;5.97;;;;;;;16.95;86.04;97121.22;4962103;28;20042;-67
2022/05/08 10:32:34;;;;;;;8.77;6.65;;;;;;;16.76;85.81;97116.06;4958128;28;20597;-67
2022/05/08 10:35:23;;;;;;;9.05;7.07;;;;;;;17.14;88.33;97108.91;4959171;28;20043;-67
2022/05/08 10:37:51;;;;;;;6.82;5.53;;;;;;;17.70;85.29;97113.81;4951824;28;20066;-67
2022/05/08 10:40:23;;;;;;;9.73;5.50;;;;;;;17.67;81.99;97107.09;4956550;28;20193;-67
2022/05/08 10:42:56;;;;;;;7.25;6.03;;;;;;;17.44;84.01;97093.75;4961531;28;20058;-68
2022/05/08 10:45:42;;;;;;;7.10;5.70;;;;;;;17.73;80.67;97104.69;4956444;28;20038;-68
2022/05/08 10:48:10;;;;;;;6.53;5.10;;;;;;;17.89;79.28;97107.78;4956841;28;20109;-68
2022/05/08 10:50:38;;;;;;;8.63;5.70;;;;;;;17.36;81.93;97109.63;4960673;28;20362;-66
2022/05/08 10:53:05;;;;;;;7.25;6.40;;;;;;;16.94;83.25;97105.81;4945366;28;20173;-70
2022/05/08 10:55:31;;;;;;;8.98;6.72;;;;;;;17.38;84.44;97109.22;4961313;28;20047;-68
2022/05/08 10:57:57;;;;;;;8.38;5.78;;;;;;;17.74;83.84;97101.53;4970328;28;20051;-68
2022/05/08 11:00:29;;;;;;;6.53;5.50;;;;;;;18.68;78.88;97106.41;4973943;28;20047;-66
2022/05/08 11:02:59;;;;;;;8.95;5.65;;;;;;;19.17;76.43;97103.56;4976091;28;20384;-68
2022/05/08 11:05:26;;;;;;;8.95;5.63;;;;;;;18.79;76.51;97109.88;4956427;28;20507;-67
2022/05/08 11:07:56;;;;;;;11.23;5.70;;;;;;;18.08;78.30;97097.41;4943465;28;20045;-68
2022/05/08 11:10:28;;;;;;;8.43;6.05;;;;;;;18.12;77.33;97096.16;4938100;28;20110;-67
2022/05/08 11:13:00;;;;;;;10.25;5.72;;;;;;;18.20;78.39;97088.56;4942616;28;20118;-68
2022/05/08 11:15:34;;;;;;;7.43;6.40;;;;;;;18.29;78.38;97096.44;4937088;28;20142;-67
2022/05/08 11:18:11;;;;;;;8.35;6.05;;;;;;;17.85;80.99;97098.72;4942966;28;20039;-67
2022/05/08 11:20:53;;;;;;;7.47;5.95;;;;;;;17.73;76.99;97099.94;4960973;28;20046;-67
2022/05/08 11:23:20;;;;;;;7.47;5.95;;;;;;;17.05;82.33;97091.13;4967073;28;20403;-69
2022/05/08 11:25:47;;;;;;;7.95;6.28;;;;;;;17.51;82.26;97109.56;4966656;28;20038;-67
2022/05/08 11:28:14;;;;;;;6.90;5.72;;;;;;;17.66;81.29;97097.22;4978888;28;20066;-67
2022/05/08 11:30:40;;;;;;;8.40;5.78;;;;;;;17.47;79.72;97106.03;4990690;28;20039;-68
2022/05/08 11:36:08;;;;;;;6.90;5.88;;;;;;;17.43;81.41;97096.94;4978918;28;20077;-68
2022/05/08 11:39:04;;;;;;;8.90;5.68;;;;;;;17.52;81.65;97103.63;4977347;28;20062;-67
2022/05/08 11:41:34;;;;;;;7.80;6.18;;;;;;;17.98;79.15;97098.25;4978155;28;20049;-68
2022/05/08 11:44:02;;;;;;;;;;;;;;;17.61;81.31;97092.13;4981357;28;20483;-68
2022/05/08 11:46:40;;;;;;;8.73;6.00;;;;;;;17.50;77.68;97094.94;4959587;28;19917;-68
2022/05/08 11:49:18;;;;;;;6.65;5.72;;;;;;;17.56;78.61;97090.53;4965930;28;20067;-68